Time;durP1;ratioP1;P1;durP2;ratioP2;P2;SDS_P1;SDS_P2;PMS_P1;PMS_P2;Temp;Humidity;BMP_temperature;BMP_pressure;BME280_temperature;BME280_humidity;BME280_pressure;Samples;Min_cycle;Max_cycle;Signal;HPM_P1;HPM_P2
2023/08/27 00:00:28;;;;;;;4.00;3.70;;;22.20;47.10;;;;;;10448342;28;20309;-71
2023/08/27 00:05:32;;;;;;;3.50;3.20;;;22.20;47.30;;;;;;10448570;28;20221;-70
2023/08/27 00:10:35;;;;;;;3.77;3.37;;;22.30;47.10;;;;;;10449006;28;20304;-71
2023/08/27 00:15:45;;;;;;;3.77;3.20;;;22.20;47.00;;;;;;10448562;28;20228;-70
2023/08/27 00:20:49;;;;;;;4.30;3.90;;;22.20;47.80;;;;;;10448468;28;20229;-70
2023/08/27 00:25:52;;;;;;;4.13;3.70;;;22.20;47.20;;;;;;10447724;28;20229;-70
2023/08/27 00:31:03;;;;;;;4.43;4.03;;;22.20;47.10;;;;;;10447710;28;20251;-70
2023/08/27 00:36:06;;;;;;;3.97;3.53;;;22.20;47.80;;;;;;10447858;28;20239;-70
2023/08/27 00:41:10;;;;;;;9.33;4.50;;;22.20;47.30;;;;;;10447706;28;20229;-70
2023/08/27 00:46:14;;;;;;;4.37;3.90;;;22.20;47.10;;;;;;10447134;28;20312;-70
2023/08/27 00:51:17;;;;;;;4.13;3.83;;;22.20;47.40;;;;;;10447295;28;20229;-70
2023/08/27 00:56:21;;;;;;;4.97;4.57;;;22.20;47.30;;;;;;10446892;28;20229;-70
2023/08/27 01:01:26;;;;;;;4.37;3.97;;;22.20;47.40;;;;;;10446814;28;20295;-70
2023/08/27 01:06:29;;;;;;;4.93;4.10;;;22.20;47.60;;;;;;10446968;28;20708;-70
2023/08/27 01:11:37;;;;;;;4.83;4.37;;;22.20;47.30;;;;;;10445056;28;20229;-70
2023/08/27 01:16:43;;;;;;;5.27;4.87;;;22.20;47.70;;;;;;10446145;28;20236;-70
2023/08/27 01:21:49;;;;;;;5.60;4.73;;;22.10;47.60;;;;;;10445770;28;20237;-70
2023/08/27 01:26:57;;;;;;;4.93;4.53;;;22.10;47.70;;;;;;10445696;28;20743;-70
2023/08/27 01:32:06;;;;;;;4.40;4.10;;;22.10;47.70;;;;;;10445697;28;20892;-70
2023/08/27 01:37:12;;;;;;;4.73;4.10;;;22.10;47.50;;;;;;10445632;28;20260;-70
2023/08/27 01:42:16;;;;;;;4.63;4.23;;;22.10;47.50;;;;;;10445895;28;20232;-70
2023/08/27 01:47:19;;;;;;;5.00;4.17;;;22.10;47.40;;;;;;10444602;28;20271;-70
2023/08/27 01:52:24;;;;;;;5.03;4.53;;;22.10;47.30;;;;;;10444907;28;20225;-70
2023/08/27 01:57:27;;;;;;;6.17;4.53;;;22.10;47.50;;;;;;10444503;28;20229;-70
2023/08/27 02:02:30;;;;;;;4.53;3.87;;;22.00;47.20;;;;;;10444623;28;20228;-70
2023/08/27 02:07:37;;;;;;;4.73;4.00;;;22.00;47.30;;;;;;10444716;28;20243;-70
2023/08/27 02:12:40;;;;;;;5.37;4.30;;;22.00;47.60;;;;;;10444181;28;20221;-70
2023/08/27 02:17:43;;;;;;;5.83;4.43;;;22.00;47.40;;;;;;10444393;28;20635;-70
2023/08/27 02:22:48;;;;;;;4.70;4.20;;;21.90;47.40;;;;;;10448231;28;20237;-71
2023/08/27 02:27:51;;;;;;;3.93;3.63;;;21.90;47.70;;;;;;10452311;28;20267;-70
2023/08/27 02:32:54;;;;;;;3.80;3.50;;;21.80;47.40;;;;;;10452348;28;20229;-70
2023/08/27 02:37:59;;;;;;;3.40;3.10;;;21.70;47.70;;;;;;10423370;28;20662;-70
2023/08/27 02:43:03;;;;;;;4.73;3.13;;;21.70;48.20;;;;;;10410551;28;20217;-73
2023/08/27 02:48:06;;;;;;;3.40;2.80;;;21.70;48.20;;;;;;10410435;28;20682;-73
2023/08/27 02:53:11;;;;;;;4.03;2.73;;;21.70;48.10;;;;;;10410441;28;20233;-73
2023/08/27 02:58:14;;;;;;;3.20;2.90;;;21.70;48.30;;;;;;10410379;28;20234;-73
2023/08/27 03:03:17;;;;;;;3.03;2.50;;;21.80;48.20;;;;;;10410049;28;20237;-73
2023/08/27 03:08:22;;;;;;;5.97;2.80;;;21.80;48.10;;;;;;10409748;28;20256;-73
2023/08/27 03:13:25;;;;;;;2.53;2.40;;;21.80;48.50;;;;;;10409617;28;20233;-73
2023/08/27 03:18:30;;;;;;;3.50;3.20;;;21.80;48.10;;;;;;10409329;28;20238;-73
2023/08/27 03:23:35;;;;;;;3.07;2.73;;;21.80;48.50;;;;;;10409416;28;20722;-73
2023/08/27 03:28:38;;;;;;;3.07;2.80;;;21.90;48.50;;;;;;10408952;28;20230;-73
2023/08/27 03:33:42;;;;;;;2.80;2.60;;;21.90;48.20;;;;;;10407599;28;20240;-73
2023/08/27 03:38:46;;;;;;;3.60;2.57;;;21.90;48.20;;;;;;10408800;28;20291;-73
2023/08/27 03:43:49;;;;;;;2.80;2.60;;;21.90;48.50;;;;;;10408542;28;20225;-73
2023/08/27 03:48:53;;;;;;;2.70;2.50;;;21.90;48.00;;;;;;10407867;28;20238;-73
2023/08/27 03:53:58;;;;;;;3.60;2.80;;;21.80;48.10;;;;;;10408285;28;21048;-74
2023/08/27 03:59:01;;;;;;;3.23;2.60;;;21.70;48.40;;;;;;10407932;28;20235;-73
2023/08/27 04:04:04;;;;;;;2.90;2.70;;;21.60;48.30;;;;;;10407207;28;20594;-74
2023/08/27 04:09:09;;;;;;;3.27;2.97;;;21.60;48.40;;;;;;10407264;28;20778;-74
2023/08/27 04:14:12;;;;;;;2.60;2.40;;;21.60;49.10;;;;;;10406980;28;20748;-74
2023/08/27 04:19:15;;;;;;;3.00;2.67;;;21.50;48.60;;;;;;10406987;28;20236;-74
2023/08/27 04:24:20;;;;;;;4.70;2.63;;;21.50;48.70;;;;;;10406893;28;20717;-74
2023/08/27 04:29:23;;;;;;;3.23;2.83;;;21.50;49.40;;;;;;10406751;28;20257;-74
2023/08/27 04:34:26;;;;;;;3.67;3.20;;;21.50;49.00;;;;;;10406769;28;20316;-73
2023/08/27 04:39:31;;;;;;;3.37;3.07;;;21.60;49.30;;;;;;10405988;28;20249;-74
2023/08/27 04:44:34;;;;;;;3.17;2.90;;;21.60;49.60;;;;;;10405870;28;20255;-73
2023/08/27 04:49:37;;;;;;;2.80;2.60;;;21.60;49.10;;;;;;10405593;28;20312;-74
2023/08/27 04:54:42;;;;;;;3.43;3.13;;;21.70;49.20;;;;;;10405510;28;20317;-73
2023/08/27 04:59:45;;;;;;;2.57;2.40;;;21.70;49.60;;;;;;10405324;28;20236;-73
2023/08/27 05:04:48;;;;;;;3.93;3.07;;;21.70;49.00;;;;;;10405070;28;20771;-73
2023/08/27 05:09:53;;;;;;;3.50;2.90;;;21.60;48.90;;;;;;10421794;28;20233;-73
2023/08/27 05:14:56;;;;;;;3.20;2.90;;;21.60;49.70;;;;;;10446094;28;20235;-73
2023/08/27 05:19:59;;;;;;;3.00;2.80;;;21.60;49.40;;;;;;10445620;28;20696;-73
2023/08/27 05:25:04;;;;;;;3.30;3.00;;;21.60;49.40;;;;;;10445659;28;20782;-74
2023/08/27 05:30:08;;;;;;;2.80;2.60;;;21.60;50.20;;;;;;10445208;28;20246;-73
2023/08/27 05:35:11;;;;;;;2.43;2.20;;;21.60;49.70;;;;;;10445063;28;20820;-73
2023/08/27 05:40:16;;;;;;;2.23;2.10;;;21.60;49.40;;;;;;10445195;28;20224;-73
2023/08/27 05:45:19;;;;;;;1.97;1.87;;;21.60;49.80;;;;;;10445068;28;20221;-73
2023/08/27 05:50:23;;;;;;;3.10;1.77;;;21.50;49.40;;;;;;10444687;28;20263;-73
2023/08/27 05:55:27;;;;;;;1.77;1.57;;;21.40;49.60;;;;;;10444304;28;20740;-73
2023/08/27 06:00:30;;;;;;;2.03;1.80;;;21.40;50.00;;;;;;10443917;28;20238;-73
2023/08/27 06:05:33;;;;;;;1.83;1.73;;;21.40;50.00;;;;;;10444348;28;20229;-73
2023/08/27 06:10:38;;;;;;;1.93;1.60;;;21.40;50.00;;;;;;10444239;28;20262;-73
2023/08/27 06:15:41;;;;;;;1.60;1.50;;;21.30;49.90;;;;;;10443604;28;20260;-72
2023/08/27 06:20:44;;;;;;;1.87;1.77;;;21.30;49.90;;;;;;10444093;28;20225;-73
2023/08/27 06:25:49;;;;;;;2.33;2.00;;;21.20;49.80;;;;;;10443778;28;20895;-73
2023/08/27 06:30:53;;;;;;;1.93;1.80;;;21.20;50.80;;;;;;10443689;28;20221;-73
2023/08/27 06:35:56;;;;;;;1.80;1.70;;;21.20;50.40;;;;;;10443790;28;20286;-73
2023/08/27 06:41:01;;;;;;;1.80;1.70;;;21.20;50.50;;;;;;10443565;28;20235;-73
2023/08/27 06:46:04;;;;;;;1.93;1.67;;;21.10;50.70;;;;;;10443283;28;20237;-73
2023/08/27 06:51:08;;;;;;;1.60;1.50;;;21.10;50.70;;;;;;10443770;28;20232;-73
2023/08/27 06:56:12;;;;;;;2.27;1.63;;;21.10;51.00;;;;;;10443415;28;20236;-73
2023/08/27 07:01:16;;;;;;;3.80;2.07;;;21.10;51.60;;;;;;10443054;28;20233;-73
2023/08/27 07:06:19;;;;;;;1.73;1.63;;;21.10;51.10;;;;;;10443372;28;20728;-73
2023/08/27 07:11:24;;;;;;;1.83;1.63;;;21.20;51.10;;;;;;10450438;28;20253;-74
2023/08/27 07:16:27;;;;;;;1.77;1.67;;;21.20;51.60;;;;;;10450387;28;20282;-73
2023/08/27 07:21:30;;;;;;;1.93;1.77;;;21.20;51.30;;;;;;10450196;28;20229;-73
2023/08/27 07:26:35;;;;;;;2.00;1.70;;;21.30;51.40;;;;;;10450408;28;20812;-73
2023/08/27 07:31:38;;;;;;;2.00;1.90;;;21.40;51.90;;;;;;10450095;28;20229;-73
2023/08/27 07:36:41;;;;;;;2.20;2.10;;;21.50;51.50;;;;;;10449614;28;20231;-73
2023/08/27 07:41:46;;;;;;;2.00;1.90;;;21.50;51.20;;;;;;10450106;28;20304;-73
2023/08/27 07:46:49;;;;;;;2.00;1.90;;;21.60;51.70;;;;;;10449134;28;20335;-74
2023/08/27 07:51:53;;;;;;;2.17;2.03;;;21.70;51.20;;;;;;10449132;28;20228;-73
2023/08/27 07:56:57;;;;;;;3.43;2.03;;;21.70;50.80;;;;;;10449019;28;20245;-74
2023/08/27 08:02:01;;;;;;;2.10;1.90;;;21.70;51.30;;;;;;10448437;28;20225;-74
2023/08/27 08:07:04;;;;;;;2.17;1.97;;;21.70;51.10;;;;;;10448445;28;20225;-74
2023/08/27 08:12:09;;;;;;;1.97;1.87;;;21.70;51.00;;;;;;10448585;28;20259;-73
2023/08/27 08:17:12;;;;;;;2.60;2.40;;;21.70;51.70;;;;;;10447901;28;20315;-74
2023/08/27 08:22:15;;;;;;;2.03;1.93;;;21.70;51.10;;;;;;10447848;28;20311;-73
2023/08/27 08:27:20;;;;;;;2.07;1.97;;;21.70;51.20;;;;;;10448058;28;20229;-73
2023/08/27 08:32:23;;;;;;;2.10;2.00;;;21.70;51.70;;;;;;10447442;28;20239;-73
2023/08/27 08:37:27;;;;;;;2.10;2.00;;;21.70;51.30;;;;;;10447754;28;20732;-73
2023/08/27 08:42:39;;;;;;;1.93;1.83;;;21.70;51.60;;;;;;10447558;28;20244;-74
2023/08/27 08:47:44;;;;;;;1.87;1.70;;;21.60;52.40;;;;;;10446862;28;20217;-73
2023/08/27 08:52:50;;;;;;;2.50;1.70;;;21.60;52.20;;;;;;10446689;28;20792;-74
2023/08/27 08:58:01;;;;;;;1.67;1.57;;;21.50;52.70;;;;;;10446632;28;20239;-73
2023/08/27 09:03:05;;;;;;;1.70;1.60;;;21.50;52.60;;;;;;10446225;28;20233;-74
2023/08/27 09:08:10;;;;;;;1.87;1.60;;;21.60;51.70;;;;;;10446158;28;20233;-74
2023/08/27 09:13:19;;;;;;;1.57;1.47;;;21.60;52.20;;;;;;10446056;28;20262;-73
2023/08/27 09:18:22;;;;;;;2.00;1.90;;;21.60;52.60;;;;;;10445480;28;20235;-73
2023/08/27 09:23:26;;;;;;;1.87;1.70;;;21.70;52.00;;;;;;10446083;28;20278;-73
2023/08/27 09:28:30;;;;;;;1.83;1.73;;;21.70;52.00;;;;;;10445480;28;20294;-74
2023/08/27 09:33:39;;;;;;;1.70;1.60;;;21.70;52.20;;;;;;10444611;28;20757;-74
2023/08/27 09:38:45;;;;;;;2.27;2.03;;;21.70;52.40;;;;;;10445218;28;20657;-74
2023/08/27 09:43:52;;;;;;;2.00;1.90;;;21.80;52.50;;;;;;10445103;28;20712;-74
2023/08/27 09:48:58;;;;;;;2.20;2.00;;;21.80;52.20;;;;;;10444814;28;20606;-74
2023/08/27 09:54:02;;;;;;;1.90;1.80;;;21.80;51.80;;;;;;10444302;28;20221;-74
2023/08/27 09:59:07;;;;;;;1.90;1.80;;;21.80;51.40;;;;;;10444903;28;20235;-74
2023/08/27 10:04:10;;;;;;;2.53;2.23;;;21.80;51.60;;;;;;10444595;28;20239;-74
2023/08/27 10:09:14;;;;;;;1.90;1.80;;;21.80;51.20;;;;;;10444074;28;20268;-74
2023/08/27 10:14:19;;;;;;;2.20;2.10;;;21.80;51.30;;;;;;10444354;28;20248;-74
2023/08/27 10:19:22;;;;;;;2.23;2.03;;;21.70;51.50;;;;;;10444044;28;20221;-74
2023/08/27 10:24:26;;;;;;;1.90;1.80;;;21.60;51.00;;;;;;10444176;28;20224;-74
2023/08/27 10:29:31;;;;;;;1.80;1.70;;;21.50;51.00;;;;;;10444102;28;20224;-74
2023/08/27 10:34:35;;;;;;;1.97;1.87;;;21.50;51.40;;;;;;10443725;28;20241;-74
2023/08/27 10:39:38;;;;;;;2.00;1.80;;;21.50;51.00;;;;;;10443843;28;20324;-75
2023/08/27 10:45:13;;;;;;;1.80;1.70;;;21.60;50.60;;;;;;10448602;28;20235;-73
2023/08/27 10:50:21;;;;;;;2.10;1.90;;;21.60;51.50;;;;;;10409842;28;20317;-74
2023/08/27 10:55:35;;;;;;;1.83;1.60;;;21.60;51.30;;;;;;10410115;28;20638;-75
2023/08/27 11:01:06;;;;;;;1.70;1.60;;;21.70;51.40;;;;;;10450309;28;20308;-75
2023/08/27 11:06:12;;;;;;;1.93;1.70;;;21.80;50.30;;;;;;10438545;28;20233;-75
2023/08/27 11:11:16;;;;;;;2.53;1.87;;;21.80;50.30;;;;;;10450511;28;20598;-74
2023/08/27 11:16:20;;;;;;;2.00;1.90;;;21.80;50.30;;;;;;10450278;28;20327;-75
2023/08/27 11:21:42;;;;;;;1.70;1.60;;;21.70;50.30;;;;;;10437353;28;20221;-76
2023/08/27 11:26:48;;;;;;;1.70;1.60;;;21.70;51.00;;;;;;10414072;28;20309;-77
2023/08/27 11:31:52;;;;;;;3.37;1.63;;;21.70;50.50;;;;;;10415744;28;20249;-75
2023/08/27 11:36:57;;;;;;;2.00;1.90;;;21.70;50.60;;;;;;10417482;28;20237;-75
2023/08/27 11:42:00;;;;;;;2.03;1.87;;;21.60;50.80;;;;;;10409900;28;20228;-75
2023/08/27 11:47:06;;;;;;;1.90;1.80;;;21.60;50.60;;;;;;10411591;28;20231;-75
2023/08/27 11:52:09;;;;;;;2.33;2.13;;;21.60;50.90;;;;;;10412896;28;20229;-74
2023/08/27 11:57:14;;;;;;;1.73;1.63;;;21.50;50.80;;;;;;10422624;28;20386;-75
2023/08/27 12:02:19;;;;;;;2.13;1.93;;;21.50;50.90;;;;;;10424069;28;20229;-75
2023/08/27 12:07:27;;;;;;;1.77;1.67;;;21.40;50.80;;;;;;10430797;28;20241;-74
2023/08/27 12:12:31;;;;;;;2.50;2.30;;;21.40;50.30;;;;;;10404563;28;20225;-76
2023/08/27 12:17:37;;;;;;;2.33;2.13;;;21.30;50.20;;;;;;10424546;28;20222;-77
2023/08/27 12:22:44;;;;;;;2.23;2.03;;;21.30;50.40;;;;;;10414684;28;20243;-76
2023/08/27 12:27:48;;;;;;;1.60;1.50;;;21.20;50.30;;;;;;10431713;28;20241;-75
2023/08/27 12:32:56;;;;;;;1.70;1.60;;;21.10;49.70;;;;;;10426857;28;20776;-74
2023/08/27 12:37:59;;;;;;;1.63;1.50;;;21.00;49.60;;;;;;10439164;28;20316;-74
2023/08/27 12:43:03;;;;;;;1.47;1.37;;;20.90;49.90;;;;;;10441069;28;20221;-74
2023/08/27 12:48:08;;;;;;;1.83;1.73;;;20.80;49.80;;;;;;10443066;28;20253;-75
2023/08/27 12:53:12;;;;;;;3.10;1.60;;;20.70;50.80;;;;;;10438347;28;20232;-75
2023/08/27 12:58:15;;;;;;;1.60;1.50;;;20.70;50.60;;;;;;10439952;28;20351;-75
2023/08/27 13:03:19;;;;;;;1.67;1.57;;;20.70;50.70;;;;;;10443219;28;20264;-76
2023/08/27 13:08:23;;;;;;;1.77;1.50;;;20.70;50.30;;;;;;10443507;28;20236;-75
2023/08/27 13:13:26;;;;;;;1.50;1.40;;;20.70;50.50;;;;;;10444809;28;20245;-75
2023/08/27 13:18:31;;;;;;;1.63;1.50;;;20.70;51.00;;;;;;10444032;28;20231;-76
2023/08/27 13:23:34;;;;;;;1.37;1.27;;;20.70;51.00;;;;;;10444424;28;20233;-75
2023/08/27 13:28:37;;;;;;;1.60;1.50;;;20.70;50.40;;;;;;10440998;28;20571;-75
2023/08/27 13:33:42;;;;;;;1.30;1.20;;;20.60;50.30;;;;;;10440376;28;20750;-75
2023/08/27 13:38:45;;;;;;;1.40;1.30;;;20.50;50.20;;;;;;10441793;28;20320;-75
2023/08/27 13:43:48;;;;;;;1.40;1.30;;;20.40;50.60;;;;;;10442262;28;20727;-74
2023/08/27 13:48:53;;;;;;;1.40;1.30;;;20.40;50.90;;;;;;10428917;28;20265;-74
2023/08/27 13:53:56;;;;;;;1.50;1.40;;;20.30;51.30;;;;;;10428852;28;20320;-74
2023/08/27 13:58:59;;;;;;;1.33;1.27;;;20.30;51.30;;;;;;10432232;28;20236;-74
2023/08/27 14:04:05;;;;;;;1.73;1.60;;;20.20;51.90;;;;;;10429053;28;20777;-74
2023/08/27 14:09:08;;;;;;;1.47;1.37;;;20.30;52.00;;;;;;10431841;28;20256;-75
2023/08/27 14:14:11;;;;;;;1.70;1.40;;;20.40;51.40;;;;;;10430388;28;20248;-74
2023/08/27 14:19:18;;;;;;;1.63;1.43;;;20.30;51.50;;;;;;10433737;28;20228;-74
2023/08/27 14:24:21;;;;;;;1.50;1.20;;;20.30;51.70;;;;;;10433429;28;20264;-74
2023/08/27 14:29:25;;;;;;;1.30;1.20;;;20.40;51.70;;;;;;10422032;28;20233;-74
2023/08/27 14:34:29;;;;;;;1.40;1.30;;;20.40;51.80;;;;;;10428729;28;20235;-74
2023/08/27 14:39:33;;;;;;;1.70;1.60;;;20.40;51.80;;;;;;10429887;28;20229;-74
2023/08/27 14:44:36;;;;;;;1.50;1.40;;;20.50;51.60;;;;;;10434628;28;20224;-74
2023/08/27 14:49:40;;;;;;;1.20;1.10;;;20.60;51.30;;;;;;10434755;28;20263;-75
2023/08/27 14:54:45;;;;;;;1.40;1.30;;;20.60;51.30;;;;;;10430066;28;20889;-75
2023/08/27 14:59:48;;;;;;;1.20;1.10;;;20.60;51.30;;;;;;10427661;28;20355;-74
2023/08/27 15:04:53;;;;;;;1.53;1.30;;;20.70;51.40;;;;;;10425471;28;20821;-75
2023/08/27 15:10:00;;;;;;;1.50;1.40;;;20.70;51.30;;;;;;10427132;28;20687;-74
2023/08/27 15:15:04;;;;;;;1.57;1.47;;;20.80;51.20;;;;;;10427657;28;20309;-74
2023/08/27 15:20:10;;;;;;;1.57;1.47;;;20.80;50.80;;;;;;10439439;28;20243;-76
2023/08/27 15:25:13;;;;;;;1.30;1.20;;;20.70;51.20;;;;;;10433928;28;21350;-75
2023/08/27 15:30:16;;;;;;;1.43;1.20;;;20.60;51.30;;;;;;10421892;28;20256;-75
2023/08/27 15:35:22;;;;;;;1.60;1.50;;;20.60;51.20;;;;;;10447117;28;20971;-75
2023/08/27 15:40:25;;;;;;;1.23;1.13;;;20.50;51.50;;;;;;10449409;28;20696;-75
2023/08/27 15:45:28;;;;;;;1.40;1.30;;;20.60;51.30;;;;;;10448120;28;20231;-75
2023/08/27 15:50:33;;;;;;;1.40;1.30;;;20.50;51.30;;;;;;10442585;28;20229;-75
2023/08/27 15:55:36;;;;;;;1.83;1.40;;;20.50;51.80;;;;;;10426557;28;20232;-76
2023/08/27 16:00:40;;;;;;;1.30;1.20;;;20.40;51.50;;;;;;10447597;28;20225;-76
2023/08/27 16:05:45;;;;;;;1.50;1.40;;;20.40;51.80;;;;;;10446501;28;20773;-76
2023/08/27 16:10:48;;;;;;;1.17;1.10;;;20.40;52.30;;;;;;10446963;28;20730;-76
2023/08/27 16:15:51;;;;;;;1.83;1.33;;;20.40;51.60;;;;;;10446902;28;20812;-76
2023/08/27 16:20:56;;;;;;;1.20;1.10;;;20.40;51.80;;;;;;10448052;28;20600;-76
2023/08/27 16:25:59;;;;;;;2.37;1.17;;;20.40;52.40;;;;;;10445894;28;20225;-76
2023/08/27 16:31:02;;;;;;;1.40;1.30;;;20.40;51.90;;;;;;10405548;28;20226;-74
2023/08/27 16:36:07;;;;;;;1.30;1.20;;;20.40;52.10;;;;;;10405668;28;20237;-74
2023/08/27 16:41:11;;;;;;;1.40;1.30;;;20.40;52.60;;;;;;10405798;28;20240;-75
2023/08/27 16:46:14;;;;;;;1.37;1.27;;;20.50;52.10;;;;;;10406117;28;20241;-74
2023/08/27 16:51:19;;;;;;;1.73;1.50;;;20.50;51.90;;;;;;10406007;28;20264;-75
2023/08/27 16:56:22;;;;;;;1.10;1.10;;;20.50;52.40;;;;;;10406153;28;20707;-74
2023/08/27 17:01:25;;;;;;;1.87;1.47;;;20.50;52.40;;;;;;10418255;28;20239;-75
2023/08/27 17:06:31;;;;;;;2.53;1.50;;;20.60;52.40;;;;;;10446472;28;20672;-75
2023/08/27 17:11:34;;;;;;;1.43;1.33;;;20.60;52.50;;;;;;10446855;28;20225;-76
2023/08/27 17:16:41;;;;;;;1.40;1.30;;;20.70;52.10;;;;;;10445844;28;20763;-75
2023/08/27 17:21:46;;;;;;;1.50;1.40;;;20.70;51.90;;;;;;10445550;28;20236;-76
2023/08/27 17:26:49;;;;;;;1.70;1.60;;;20.70;52.30;;;;;;10434515;28;20229;-75
2023/08/27 17:31:52;;;;;;;1.40;1.30;;;20.70;52.10;;;;;;10420768;28;20252;-75
2023/08/27 17:36:57;;;;;;;1.40;1.27;;;20.70;52.20;;;;;;10436570;28;20303;-76
2023/08/27 17:42:01;;;;;;;1.40;1.30;;;20.60;52.40;;;;;;10432906;28;20237;-76
2023/08/27 17:47:05;;;;;;;1.03;1.03;;;20.60;52.10;;;;;;10430386;28;20308;-74
2023/08/27 17:52:09;;;;;;;1.20;1.10;;;20.60;52.10;;;;;;10429147;28;20310;-75
2023/08/27 17:57:13;;;;;;;1.20;1.10;;;20.50;52.30;;;;;;10431236;28;20229;-75
2023/08/27 18:02:16;;;;;;;1.23;1.20;;;20.50;52.30;;;;;;10428165;28;20223;-75
2023/08/27 18:07:21;;;;;;;1.50;1.20;;;20.50;52.30;;;;;;10442986;28;20286;-75
2023/08/27 18:12:24;;;;;;;1.03;1.03;;;20.50;52.50;;;;;;10435938;28;20230;-76
2023/08/27 18:17:27;;;;;;;1.53;1.10;;;20.40;52.00;;;;;;10431278;28;20228;-75
2023/08/27 18:22:32;;;;;;;1.00;1.00;;;20.40;52.00;;;;;;10424290;28;20263;-75
2023/08/27 18:27:38;;;;;;;1.40;1.30;;;20.40;52.40;;;;;;10429491;28;20225;-76
2023/08/27 18:32:43;;;;;;;1.77;1.20;;;20.40;52.30;;;;;;10416797;28;20231;-76
2023/08/27 18:37:48;;;;;;;1.30;1.20;;;20.40;52.40;;;;;;10430214;28;20228;-76
2023/08/27 18:42:51;;;;;;;1.23;1.13;;;20.30;52.50;;;;;;10432153;28;20276;-76
2023/08/27 18:47:54;;;;;;;1.53;1.30;;;20.30;52.40;;;;;;10422931;28;20252;-76
2023/08/27 18:52:59;;;;;;;1.53;1.20;;;20.30;52.30;;;;;;10419866;28;20225;-76
2023/08/27 18:58:02;;;;;;;1.20;1.10;;;20.30;52.70;;;;;;10421680;28;20235;-76
2023/08/27 19:03:06;;;;;;;1.50;1.40;;;20.30;52.40;;;;;;10427004;28;20264;-77
2023/08/27 19:08:11;;;;;;;2.47;1.30;;;20.30;52.50;;;;;;10437970;28;20229;-76
2023/08/27 19:13:15;;;;;;;1.13;1.13;;;20.20;52.90;;;;;;10433797;28;20229;-76
2023/08/27 19:18:18;;;;;;;0.93;0.93;;;20.30;52.70;;;;;;10430686;28;20252;-77
2023/08/27 19:23:22;;;;;;;1.17;1.17;;;20.40;52.30;;;;;;10435070;28;20728;-77
2023/08/27 19:28:26;;;;;;;1.10;1.10;;;20.40;52.30;;;;;;10435607;28;20283;-77
2023/08/27 19:33:29;;;;;;;1.30;1.20;;;20.40;51.90;;;;;;10430768;28;20239;-77
2023/08/27 19:38:34;;;;;;;1.27;1.10;;;20.30;52.00;;;;;;10422507;28;20239;-77
2023/08/27 19:43:37;;;;;;;1.00;1.00;;;20.30;52.20;;;;;;10430507;28;20231;-77
2023/08/27 19:48:40;;;;;;;1.40;1.30;;;20.20;52.00;;;;;;10439909;28;20229;-77
2023/08/27 19:53:45;;;;;;;2.50;1.70;;;20.20;52.10;;;;;;10431374;28;20233;-77
2023/08/27 19:58:48;;;;;;;1.57;1.47;;;20.10;52.30;;;;;;10424325;28;20300;-77
2023/08/27 20:03:51;;;;;;;1.47;1.37;;;20.10;52.10;;;;;;10430284;28;20638;-78
2023/08/27 20:08:56;;;;;;;1.40;1.30;;;19.90;52.20;;;;;;10446333;28;20328;-76
2023/08/27 20:13:59;;;;;;;1.30;1.20;;;19.90;52.60;;;;;;10448779;28;20272;-76
2023/08/27 20:19:02;;;;;;;1.97;1.37;;;19.80;52.20;;;;;;10446887;28;20721;-76
2023/08/27 20:24:07;;;;;;;1.23;1.13;;;19.80;52.20;;;;;;10436347;28;20263;-75
2023/08/27 20:29:10;;;;;;;1.43;1.33;;;19.70;52.50;;;;;;10413277;28;20248;-76
2023/08/27 20:34:14;;;;;;;4.20;1.90;;;19.70;52.20;;;;;;10438718;28;20229;-76
2023/08/27 20:39:19;;;;;;;1.33;1.10;;;19.70;52.00;;;;;;10439519;28;20231;-76
2023/08/27 20:44:23;;;;;;;1.47;1.37;;;19.60;51.80;;;;;;10440222;28;20231;-76
2023/08/27 20:49:26;;;;;;;1.80;1.70;;;19.60;51.70;;;;;;10445286;28;20311;-76
2023/08/27 20:54:31;;;;;;;1.60;1.50;;;19.50;51.80;;;;;;10430796;28;20233;-76
2023/08/27 20:59:34;;;;;;;1.67;1.30;;;19.50;52.00;;;;;;10426956;28;20225;-76
2023/08/27 21:04:37;;;;;;;1.40;1.30;;;19.50;52.20;;;;;;10427815;28;20279;-74
2023/08/27 21:09:42;;;;;;;2.73;1.50;;;19.60;52.10;;;;;;10431102;28;20229;-74
2023/08/27 21:14:45;;;;;;;1.50;1.40;;;19.70;51.90;;;;;;10417962;28;20239;-76
2023/08/27 21:19:48;;;;;;;1.47;1.33;;;19.70;51.80;;;;;;10416123;28;20282;-76
2023/08/27 21:24:53;;;;;;;1.80;1.40;;;19.70;51.80;;;;;;10437144;28;20237;-77
2023/08/27 21:29:56;;;;;;;1.87;1.67;;;19.70;51.80;;;;;;10439293;28;20229;-76
2023/08/27 21:34:59;;;;;;;1.50;1.40;;;19.70;51.60;;;;;;10436306;28;20224;-77
2023/08/27 21:40:04;;;;;;;1.40;1.20;;;19.70;51.80;;;;;;10427529;28;20217;-77
2023/08/27 21:45:09;;;;;;;2.10;1.40;;;19.70;52.00;;;;;;10438103;28;20235;-77
2023/08/27 21:50:12;;;;;;;1.60;1.50;;;19.70;52.00;;;;;;10437669;28;20319;-76
2023/08/27 21:55:16;;;;;;;1.63;1.30;;;19.70;51.70;;;;;;10431943;28;20304;-76
2023/08/27 22:00:22;;;;;;;1.50;1.40;;;19.70;52.10;;;;;;10428063;28;20304;-75
2023/08/27 22:05:25;;;;;;;1.70;1.60;;;19.70;52.00;;;;;;10423251;28;20248;-75
2023/08/27 22:10:31;;;;;;;1.90;1.67;;;19.70;52.00;;;;;;10435964;28;20298;-76
2023/08/27 22:15:35;;;;;;;1.90;1.53;;;19.70;51.80;;;;;;10417452;28;20900;-77
2023/08/27 22:20:38;;;;;;;1.63;1.50;;;19.70;52.10;;;;;;10426036;28;20708;-77
2023/08/27 22:25:43;;;;;;;1.30;1.23;;;19.70;51.80;;;;;;10414205;28;20290;-77
2023/08/27 22:30:46;;;;;;;1.60;1.50;;;19.70;52.00;;;;;;10413272;28;20319;-77
2023/08/27 22:35:50;;;;;;;1.50;1.40;;;19.70;51.90;;;;;;10422149;28;20240;-77
2023/08/27 22:40:54;;;;;;;2.40;1.53;;;19.70;52.10;;;;;;10420332;28;20228;-77
2023/08/27 22:45:57;;;;;;;1.90;1.80;;;19.70;52.10;;;;;;10437235;28;20278;-77
2023/08/27 22:51:04;;;;;;;1.83;1.57;;;19.60;51.90;;;;;;10425152;28;20295;-77
2023/08/27 22:56:09;;;;;;;1.83;1.70;;;19.60;52.00;;;;;;10437201;28;20229;-77
2023/08/27 23:01:13;;;;;;;1.70;1.60;;;19.60;52.60;;;;;;10430687;28;21023;-77
2023/08/27 23:06:16;;;;;;;1.90;1.80;;;19.60;52.80;;;;;;10427672;28;20313;-77
2023/08/27 23:11:21;;;;;;;2.40;1.60;;;19.70;52.90;;;;;;10444377;28;20235;-77
2023/08/27 23:16:27;;;;;;;1.57;1.47;;;19.70;52.80;;;;;;10432836;28;20260;-77
2023/08/27 23:21:30;;;;;;;1.80;1.70;;;19.80;52.60;;;;;;10428395;28;20221;-78
2023/08/27 23:26:35;;;;;;;2.17;1.97;;;19.90;52.50;;;;;;10436608;28;20232;-77
2023/08/27 23:31:38;;;;;;;2.33;2.20;;;19.90;52.60;;;;;;10430816;28;20227;-77
2023/08/27 23:36:41;;;;;;;2.23;2.13;;;20.00;52.60;;;;;;10425259;28;20236;-76
2023/08/27 23:41:46;;;;;;;2.30;2.17;;;20.00;52.30;;;;;;10431164;28;20228;-76
2023/08/27 23:46:49;;;;;;;2.07;1.97;;;20.00;52.40;;;;;;10429550;28;20229;-77
2023/08/27 23:51:52;;;;;;;2.40;2.30;;;20.00;52.30;;;;;;10429380;28;20256;-77
2023/08/27 23:56:57;;;;;;;2.50;2.30;;;19.90;52.20;;;;;;10432997;28;20256;-77
